Time;durP1;ratioP1;P1;durP2;ratioP2;P2;SDS_P1;SDS_P2;PMS_P1;PMS_P2;Temp;Humidity;BMP_temperature;BMP_pressure;BME280_temperature;BME280_humidity;BME280_pressure;Samples;Min_cycle;Max_cycle;Signal;HPM_P1;HPM_P2
2023/07/21 00:02:26;;;;;;;3.70;3.40;;;;;;;17.23;64.57;99952.55;125565;1302;639278;-72
2023/07/21 00:06:19;;;;;;;5.20;3.10;;;;;;;17.22;64.95;99947.23;128140;1275;127765;-73
2023/07/21 00:10:24;;;;;;;5.30;3.50;;;;;;;17.19;64.78;99950.70;127491;1284;115414;-75
2023/07/21 00:14:13;;;;;;;;;;;;;;;;;;;;;
2023/07/21 00:18:32;;;;;;;4.30;3.20;;;;;;;17.16;65.15;99949.98;126735;1290;114925;-72
2023/07/21 00:22:31;;;;;;;6.50;3.30;;;;;;;17.16;65.39;99950.02;126178;1298;115182;-73
2023/07/21 00:26:35;;;;;;;10.00;3.60;;;;;;;17.14;65.13;99947.96;125895;1299;129783;-73
2023/07/21 00:30:37;;;;;;;3.60;3.20;;;;;;;17.15;65.49;99950.13;126142;1301;115515;-68
2023/07/21 00:38:40;;;;;;;4.20;3.50;;;;;;;17.17;65.66;99950.66;126569;1295;636090;-75
2023/07/21 00:42:40;;;;;;;;;;;;;;;;;;;;;
2023/07/21 00:54:56;;;;;;;5.80;3.80;;;;;;;17.15;65.94;99941.79;126514;1313;115027;-73
2023/07/21 00:58:57;;;;;;;3.90;2.60;;;;;;;17.13;66.02;99941.01;125515;1324;128045;-73
2023/07/21 01:02:59;;;;;;;3.30;3.00;;;;;;;17.12;66.07;99941.84;124512;1311;115515;-70
2023/07/21 01:11:35;;;;;;;5.40;3.50;;;;;;;17.15;66.12;99940.19;125694;1298;639331;-74
2023/07/21 01:15:37;;;;;;;5.60;3.50;;;;;;;17.14;66.48;99933.05;128077;1302;127917;-70
2023/07/21 01:19:41;;;;;;;5.60;3.50;;;;;;;17.14;66.54;99932.33;127396;1297;114943;-74
2023/07/21 01:44:25;;;;;;;5.20;3.70;;;;;;;16.80;66.87;99927.47;125836;1311;637858;-72
2023/07/21 01:57:38;;;;;;;5.10;4.00;;;;;;;16.58;67.41;99926.57;125936;1308;638576;-69
2023/07/21 02:09:22;;;;;;;4.80;4.30;;;;;;;16.35;68.06;99930.73;123684;1304;5477071;-75
2023/07/21 02:13:18;;;;;;;;;;;;;;;;;;;;;
2023/07/21 02:21:26;;;;;;;;;;;;;;;;;;;;;
2023/07/21 02:29:33;;;;;;;6.00;4.30;;;;;;;16.03;69.12;99924.95;125947;1301;115115;-76
2023/07/21 02:38:08;;;;;;;5.30;4.70;;;;;;;15.93;69.21;99936.54;125634;1301;639082;-76
2023/07/21 02:46:14;;;;;;;6.50;4.60;;;;;;;15.80;69.69;99940.75;128030;1284;115424;-75
2023/07/21 02:50:18;;;;;;;5.70;4.80;;;;;;;15.73;70.00;99940.92;123959;1287;5445588;-77
2023/07/21 02:54:19;;;;;;;9.10;4.20;;;;;;;15.69;70.10;99943.27;126457;1304;114975;-72
2023/07/21 02:58:20;;;;;;;7.40;4.70;;;;;;;15.62;70.17;99946.95;126029;1300;114972;-77
2023/07/21 03:02:05;;;;;;;5.20;4.30;;;;;;;15.58;70.53;99953.77;124989;1310;115224;-76
2023/07/21 03:05:25;;;;;;;6.70;4.50;;;;;;;15.56;70.82;99955.91;125028;1319;128526;-75
2023/07/21 03:14:01;;;;;;;7.10;4.40;;;;;;;15.55;70.96;99952.39;125874;1312;636313;-75
2023/07/21 03:18:03;;;;;;;7.80;4.50;;;;;;;15.53;71.12;99955.98;126744;1292;128154;-71
2023/07/21 03:21:54;;;;;;;;;;;;;;;;;;;;;
2023/07/21 03:25:57;;;;;;;5.30;4.80;;;;;;;15.53;71.75;99957.55;121318;1327;5442260;-74
2023/07/21 03:34:32;;;;;;;6.60;4.90;;;;;;;15.62;71.98;99952.90;125591;1303;638469;-74
2023/07/21 03:38:35;;;;;;;9.30;4.90;;;;;;;15.66;71.90;99957.84;127925;1280;127990;-75
2023/07/21 03:42:38;;;;;;;5.60;5.00;;;;;;;15.71;72.26;99959.80;127963;1302;115307;-73
2023/07/21 03:46:38;;;;;;;;;;;;;;;;;;;;;
2023/07/21 03:50:42;;;;;;;5.60;4.90;;;;;;;15.78;71.98;99954.58;126557;1299;115283;-72
2023/07/21 03:54:43;;;;;;;7.10;5.00;;;;;;;15.79;72.07;99954.14;125631;1323;114980;-74
2023/07/21 03:58:44;;;;;;;9.20;5.20;;;;;;;15.81;72.11;99952.91;124675;1313;130611;-74
2023/07/21 04:07:21;;;;;;;6.90;5.10;;;;;;;15.97;72.07;99955.50;125579;1302;639394;-75
2023/07/21 04:11:22;;;;;;;4.80;4.30;;;;;;;16.05;72.09;99956.37;128131;1302;128631;-75
2023/07/21 04:15:25;;;;;;;4.80;4.30;;;;;;;16.13;72.00;99959.46;127853;1283;115222;-75
2023/07/21 04:19:21;;;;;;;;;;;;;;;;;;;;;
2023/07/21 04:27:18;;;;;;;5.80;5.00;;;;;;;16.34;71.98;99963.47;125045;1328;114966;-74
2023/07/21 04:31:13;;;;;;;6.30;4.30;;;;;;;16.44;72.02;99965.22;125089;1326;129785;-75
2023/07/21 04:43:49;;;;;;;7.60;4.80;;;;;;;16.86;71.43;99963.06;125587;1299;636729;-73
2023/07/21 04:47:53;;;;;;;5.40;4.90;;;;;;;17.21;71.52;99964.27;127334;1284;128026;-73
2023/07/21 04:52:00;;;;;;;4.90;4.40;;;;;;;17.98;71.82;99962.46;126884;1303;115279;-73
2023/07/21 04:56:01;;;;;;;4.50;4.10;;;;;;;19.25;70.87;99958.39;122126;1300;5463677;-73
2023/07/21 05:04:29;;;;;;;;;;;;;;;;;;;;;
2023/07/21 05:08:33;;;;;;;4.60;3.30;;;;;;;21.16;67.03;99951.86;128780;1276;127768;-70
2023/07/21 05:12:35;;;;;;;3.40;2.60;;;;;;;21.68;65.39;99952.38;127716;1284;115422;-69
2023/07/21 05:16:38;;;;;;;;;;;;;;;;;;;;;
2023/07/21 05:20:40;;;;;;;3.60;2.70;;;;;;;22.24;62.71;99950.60;125427;1316;115082;-72
2023/07/21 05:29:12;;;;;;;4.10;2.20;;;;;;;23.07;60.18;99937.52;126149;1298;638584;-70
2023/07/21 05:33:00;;;;;;;;;;;;;;;;;;;;;
2023/07/21 05:36:53;;;;;;;5.10;2.40;;;;;;;23.23;58.36;99940.41;128678;1291;116278;-72
2023/07/21 05:40:37;;;;;;;2.80;2.10;;;;;;;23.23;57.67;99936.02;125713;1278;5455731;-69
2023/07/21 05:44:32;;;;;;;;;;;;;;;;;;;;;
2023/07/21 05:48:36;;;;;;;2.30;2.10;;;;;;;22.96;56.15;99943.99;127244;1283;114848;-73
2023/07/21 06:00:44;;;;;;;5.60;1.90;;;;;;;23.52;54.74;99945.39;124476;1314;114998;-70
2023/07/21 06:09:18;;;;;;;2.50;2.10;;;;;;;24.26;53.69;99945.17;126452;1297;639647;-67
2023/07/21 06:13:21;;;;;;;6.50;2.20;;;;;;;24.82;52.85;99940.21;127488;1286;129634;-75
2023/07/21 06:17:14;;;;;;;3.20;1.70;;;;;;;25.25;51.92;99945.84;127046;1286;114944;-74
2023/07/21 06:21:17;;;;;;;3.70;1.80;;;;;;;25.78;51.06;99948.14;123096;1290;5445328;-74
2023/07/21 06:25:44;;;;;;;2.70;1.80;;;;;;;26.19;50.25;99945.15;125772;1304;114870;-74
2023/07/21 06:29:19;;;;;;;5.70;1.70;;;;;;;26.63;49.59;99945.84;124353;1316;114964;-70
2023/07/21 06:37:44;;;;;;;;;;;;;;;;;;;;;
2023/07/21 06:41:38;;;;;;;2.80;1.90;;;;;;;27.92;47.56;99943.10;127807;1303;118942;-67
2023/07/21 06:45:19;;;;;;;;;;;;;;;;;;;;;
2023/07/21 06:48:43;;;;;;;2.50;1.80;;;;;;;28.26;45.66;99936.65;126633;1295;114929;-72
2023/07/21 06:52:16;;;;;;;2.40;1.20;;;;;;;28.47;44.79;99933.05;126521;1293;114976;-72
2023/07/21 06:56:10;;;;;;;1.30;1.20;;;;;;;28.66;43.99;99932.27;126921;1308;114855;-73
2023/07/21 06:59:38;;;;;;;;;;;;;;;;;;;;;
2023/07/21 07:03:23;;;;;;;1.90;1.70;;;;;;;28.64;42.55;99924.20;126564;1306;114872;-70
2023/07/21 07:06:40;;;;;;;;;;;;;;;;;;;;;
2023/07/21 07:10:35;;;;;;;2.20;1.40;;;;;;;28.82;41.48;99926.05;126112;1296;115032;-72
2023/07/21 07:14:27;;;;;;;2.70;1.40;;;;;;;28.91;40.82;99922.35;125590;1305;114893;-69
2023/07/21 07:18:27;;;;;;;4.10;1.20;;;;;;;28.99;40.60;99918.91;125671;1295;120900;-72
2023/07/21 07:22:28;;;;;;;1.20;1.10;;;;;;;29.18;39.78;99915.05;125317;1311;114879;-71
2023/07/21 07:26:31;;;;;;;1.50;0.90;;;;;;;29.44;39.22;99917.21;125288;1308;116140;-71
2023/07/21 07:34:37;;;;;;;;;;;;;;;;;;;;;
2023/07/21 07:38:37;;;;;;;;;;;;;;;;;;;;;
2023/07/21 07:42:42;;;;;;;1.80;1.00;;;;;;;31.38;37.01;99903.96;128326;1275;114782;-74
2023/07/21 07:46:48;;;;;;;0.90;0.90;;;;;;;31.72;36.36;99899.27;126697;1301;5428343;-71
2023/07/21 07:50:47;;;;;;;;;;;;;;;;;;;;;
2023/07/21 07:54:33;;;;;;;3.00;0.90;;;;;;;32.17;33.76;99902.69;124384;1315;121211;-72
2023/07/21 08:02:52;;;;;;;1.80;0.80;;;;;;;32.41;34.15;99893.98;125956;1299;638831;-74
2023/07/21 08:06:47;;;;;;;;;;;;;;;;;;;;;
2023/07/21 08:10:43;;;;;;;;;;;;;;;;;;;;;
2023/07/21 08:14:45;;;;;;;1.70;0.90;;;;;;;32.58;31.68;99893.98;121473;1306;5454217;-72
2023/07/21 08:22:58;;;;;;;1.20;0.80;;;;;;;32.22;31.38;99884.39;126388;1295;635719;-73
2023/07/21 08:27:02;;;;;;;0.70;0.70;;;;;;;32.29;31.52;99886.56;129078;1272;120221;-74
2023/07/21 08:30:54;;;;;;;1.70;0.90;;;;;;;32.48;30.91;99882.48;127767;1286;114931;-71
2023/07/21 08:35:02;;;;;;;0.90;0.90;;;;;;;32.27;30.85;99882.23;127418;1286;5510416;-72
2023/07/21 08:39:03;;;;;;;0.90;0.70;;;;;;;31.81;30.95;99878.83;126439;1289;114850;-72
2023/07/21 08:43:03;;;;;;;1.30;1.20;;;;;;;31.40;30.88;99885.65;125677;1304;121026;-69
2023/07/21 08:46:34;;;;;;;;;;;;;;;;;;;;;
2023/07/21 08:55:09;;;;;;;2.50;0.90;;;;;;;30.66;31.80;99875.45;125891;1299;638078;-71
2023/07/21 08:59:09;;;;;;;;;;;;;;;;;;;;;
2023/07/21 09:03:22;;;;;;;2.70;0.80;;;;;;;30.43;31.15;99873.26;128369;1279;114880;-71
2023/07/21 09:11:08;;;;;;;4.10;1.00;;;;;;;30.38;31.28;99865.10;128069;1283;114930;-73
2023/07/21 09:19:20;;;;;;;0.80;0.80;;;;;;;30.17;30.77;99863.20;126310;1297;119285;-73
2023/07/21 09:23:03;;;;;;;2.30;1.00;;;;;;;29.96;30.91;99862.52;125984;1314;114884;-73
2023/07/21 09:26:46;;;;;;;1.50;0.80;;;;;;;29.83;31.22;99865.53;126138;1301;115024;-74
2023/07/21 09:30:26;;;;;;;5.60;1.00;;;;;;;29.71;30.87;99860.40;126247;1300;114884;-73
2023/07/21 09:34:05;;;;;;;;;;;;;;;;;;;;;
2023/07/21 09:37:58;;;;;;;2.20;1.00;;;;;;;29.90;31.16;99849.85;125884;1304;121118;-69
2023/07/21 09:42:02;;;;;;;1.30;0.90;;;;;;;29.95;30.66;99846.89;126111;1299;114911;-75
2023/07/21 09:45:53;;;;;;;1.30;1.00;;;;;;;30.02;30.84;99842.67;126003;1300;114902;-73
2023/07/21 09:54:34;;;;;;;3.10;0.90;;;;;;;29.84;29.85;99830.50;125735;1305;638448;-74
2023/07/21 09:58:27;;;;;;;0.90;0.80;;;;;;;29.79;30.07;99828.91;127749;1285;121340;-73
2023/07/21 10:02:35;;;;;;;1.50;0.90;;;;;;;29.84;30.17;99824.66;127068;1301;114901;-74
2023/07/21 10:06:16;;;;;;;1.20;0.80;;;;;;;29.88;30.27;99820.55;122490;1297;5468173;-74
2023/07/21 10:10:18;;;;;;;1.10;1.10;;;;;;;30.03;30.48;99822.40;126041;1298;115009;-74
2023/07/21 10:14:25;;;;;;;1.20;1.00;;;;;;;30.01;30.01;99824.74;125148;1311;116586;-74
2023/07/21 10:23:24;;;;;;;1.30;1.00;;;;;;;29.59;29.49;99815.77;125787;1299;638846;-74
2023/07/21 10:30:52;;;;;;;;;;;;;;;;;;;;;
2023/07/21 10:35:06;;;;;;;0.90;0.90;;;;;;;29.21;29.33;99815.07;125936;1310;5449014;-72
2023/07/21 10:39:06;;;;;;;;;;;;;;;;;;;;;
2023/07/21 10:43:16;;;;;;;;;;;;;;;;;;;;;
2023/07/21 10:47:18;;;;;;;2.10;1.20;;;;;;;29.04;30.41;99813.94;126258;1308;114828;-74
2023/07/21 10:51:22;;;;;;;1.00;0.70;;;;;;;28.98;30.35;99808.71;126062;1301;114860;-72
2023/07/21 10:55:23;;;;;;;3.30;0.80;;;;;;;28.92;30.37;99803.27;126068;1298;115041;-73
2023/07/21 11:03:57;;;;;;;2.30;1.00;;;;;;;28.70;29.81;99795.35;125678;1303;637891;-71
2023/07/21 11:07:58;;;;;;;0.80;0.80;;;;;;;28.43;30.04;99792.80;127514;1305;120337;-73
2023/07/21 11:11:55;;;;;;;2.50;1.10;;;;;;;28.24;29.98;99785.10;126780;1287;114960;-73
2023/07/21 11:15:59;;;;;;;1.80;1.20;;;;;;;28.11;30.17;99781.14;122292;1300;5500091;-73
2023/07/21 11:20:00;;;;;;;2.80;0.90;;;;;;;28.04;30.29;99773.07;126201;1293;115387;-74
2023/07/21 11:24:02;;;;;;;1.60;0.80;;;;;;;28.00;30.07;99773.09;125773;1308;114984;-73
2023/07/21 11:32:04;;;;;;;0.70;0.70;;;;;;;27.91;30.11;99763.17;124933;1311;121188;-73
2023/07/21 11:36:14;;;;;;;3.40;1.20;;;;;;;27.82;30.72;99759.17;124705;1328;115059;-72
2023/07/21 11:44:49;;;;;;;0.80;0.80;;;;;;;28.00;31.20;99750.38;125889;1305;639207;-73
2023/07/21 11:48:52;;;;;;;1.50;1.10;;;;;;;27.99;30.92;99745.34;128993;1276;119428;-73
2023/07/21 11:53:03;;;;;;;1.50;1.20;;;;;;;27.99;31.10;99734.62;128279;1286;114738;-73
2023/07/21 11:57:07;;;;;;;2.20;0.90;;;;;;;27.96;31.15;99726.95;122524;1292;5451339;-72
2023/07/21 12:01:08;;;;;;;2.00;1.10;;;;;;;27.98;31.29;99725.34;125710;1302;114898;-68
2023/07/21 12:09:16;;;;;;;1.40;1.00;;;;;;;28.17;30.55;99720.44;125872;1303;637494;-73
2023/07/21 12:13:20;;;;;;;2.80;0.70;;;;;;;28.20;30.64;99711.05;128519;1280;119380;-68
2023/07/21 12:17:22;;;;;;;;;;;;;;;;;;;;;
2023/07/21 12:21:18;;;;;;;;;;;;;;;28.28;31.09;99696.28;122217;1310;5493237;-73
2023/07/21 12:25:20;;;;;;;1.70;0.90;;;;;;;28.44;30.99;99694.29;125195;1311;114889;-70
2023/07/21 12:33:30;;;;;;;;;;;;;;;;;;;;;
2023/07/21 12:37:27;;;;;;;;;;;;;;;;;;;;;
2023/07/21 12:41:30;;;;;;;4.60;0.80;;;;;;;29.03;30.26;99671.08;127054;1289;114742;-70
2023/07/21 12:45:28;;;;;;;;;;;;;;;;;;;;;
2023/07/21 12:49:06;;;;;;;;;;;;;;;;;;;;;
2023/07/21 12:57:06;;;;;;;1.40;1.00;;;;;;;28.55;30.21;99667.52;125919;1299;637103;-72
2023/07/21 13:01:08;;;;;;;0.80;0.80;;;;;;;28.56;30.10;99675.70;128240;1291;120534;-71
2023/07/21 13:05:11;;;;;;;;;;;;;;;;;;;;;
2023/07/21 13:09:15;;;;;;;2.40;1.00;;;;;;;28.64;30.56;99673.67;122392;1298;5453228;-72
2023/07/21 13:13:12;;;;;;;1.40;1.20;;;;;;;28.83;30.08;99666.79;124909;1312;115042;-70
2023/07/21 13:21:38;;;;;;;1.00;1.00;;;;;;;28.78;29.72;99652.25;125799;1301;638700;-74
2023/07/21 13:25:41;;;;;;;1.20;0.90;;;;;;;28.73;29.79;99651.05;127961;1292;119761;-75
2023/07/21 13:29:38;;;;;;;;;;;;;;;;;;;;;
2023/07/21 13:34:13;;;;;;;1.10;1.00;;;;;;;28.63;29.54;99655.80;125745;1302;637404;-74
2023/07/21 13:38:15;;;;;;;3.70;1.00;;;;;;;28.23;29.61;99649.65;127459;1288;119996;-72
2023/07/21 13:42:23;;;;;;;6.20;1.40;;;;;;;28.01;29.99;99648.00;126616;1296;114851;-74
2023/07/21 13:46:14;;;;;;;3.20;1.10;;;;;;;27.95;30.24;99643.27;122001;1312;5436301;-74
2023/07/21 13:50:36;;;;;;;1.60;1.10;;;;;;;27.78;30.15;99643.38;125499;1315;114914;-76
2023/07/21 13:54:19;;;;;;;1.00;1.00;;;;;;;27.68;30.13;99646.18;124597;1313;114897;-70
2023/07/21 14:02:54;;;;;;;1.50;1.00;;;;;;;27.33;30.39;99633.70;126062;1308;638841;-69
2023/07/21 14:06:57;;;;;;;2.90;1.00;;;;;;;27.16;30.42;99632.02;127651;1286;118982;-72
2023/07/21 14:10:49;;;;;;;1.60;1.00;;;;;;;27.22;30.82;99629.02;127026;1310;114933;-76
2023/07/21 14:15:11;;;;;;;3.50;1.20;;;;;;;27.40;30.91;99621.09;126044;1301;635847;-71
2023/07/21 14:19:15;;;;;;;3.70;1.60;;;;;;;27.45;30.82;99609.58;128975;1274;119209;-75
2023/07/21 14:22:55;;;;;;;;;;;;;;;;;;;;;
2023/07/21 14:26:38;;;;;;;2.60;1.20;;;;;;;27.47;31.11;99608.27;127293;1286;114856;-73
2023/07/21 14:30:37;;;;;;;1.60;0.90;;;;;;;27.49;31.58;99606.02;123762;1283;115328;-66
2023/07/21 14:34:40;;;;;;;1.10;1.10;;;;;;;27.50;31.38;99599.05;126667;1296;114966;-74
2023/07/21 14:42:42;;;;;;;6.20;1.20;;;;;;;27.19;32.00;99595.36;126065;1301;119205;-77
2023/07/21 14:46:44;;;;;;;3.20;1.30;;;;;;;26.98;32.44;99590.90;125252;1304;116595;-73
2023/07/21 14:50:37;;;;;;;;;;;;;;;;;;;;;
2023/07/21 14:59:00;;;;;;;;;;;;;;;;;;;;;
2023/07/21 15:06:56;;;;;;;;;;;;;;;;;;;;;
2023/07/21 15:11:04;;;;;;;4.40;1.20;;;;;;;26.03;33.26;99566.73;122441;1298;5417232;-77
2023/07/21 15:15:05;;;;;;;1.30;1.00;;;;;;;25.76;33.47;99561.91;125699;1308;114945;-77
2023/07/21 15:18:55;;;;;;;19.80;15.10;;;;;;;25.58;33.51;99559.84;124405;1316;114885;-76
2023/07/21 15:26:41;;;;;;;1.70;1.10;;;;;;;25.25;34.01;99551.77;126125;1297;636317;-78
2023/07/21 15:30:45;;;;;;;3.80;1.90;;;;;;;25.18;34.25;99551.38;129014;1267;127859;-77
2023/07/21 15:34:16;;;;;;;6.10;1.40;;;;;;;25.10;34.64;99545.38;127702;1288;114926;-78
2023/07/21 15:42:21;;;;;;;1.70;1.40;;;;;;;24.97;34.92;99537.52;122474;1299;114916;-78
2023/07/21 15:46:23;;;;;;;2.60;1.40;;;;;;;24.91;35.33;99525.75;125982;1302;114929;-63
2023/07/21 15:57:50;;;;;;;1.60;1.20;;;;;;;24.89;36.01;99521.27;126520;1294;636032;-64
2023/07/21 16:01:40;;;;;;;1.80;1.10;;;;;;;24.85;35.83;99520.45;129567;1269;127813;-62
2023/07/21 16:05:04;;;;;;;1.50;1.30;;;;;;;24.81;35.83;99519.86;128511;1275;114870;-64
2023/07/21 16:08:50;;;;;;;2.10;1.10;;;;;;;24.79;36.08;99515.59;128623;1278;114813;-64
2023/07/21 16:12:26;;;;;;;;;;;;;;;;;;;;;
2023/07/21 16:16:30;;;;;;;1.40;1.20;;;;;;;24.76;36.45;99517.41;128017;1291;114879;-64
2023/07/21 16:20:09;;;;;;;5.80;1.40;;;;;;;24.69;36.42;99530.77;127210;1284;128843;-65
2023/07/21 16:24:02;;;;;;;3.40;2.30;;;;;;;24.65;36.57;99533.73;127191;1288;114733;-64
2023/07/21 16:27:49;;;;;;;5.10;2.70;;;;;;;24.58;36.86;99524.41;127209;1286;114935;-63
2023/07/21 16:31:43;;;;;;;;;;;;;;;;;;;;;
2023/07/21 16:35:18;;;;;;;;;;;;;;;;;;;;;
2023/07/21 16:38:32;;;;;;;2.10;1.70;;;;;;;24.40;38.12;99547.20;126456;1310;128816;-65
2023/07/21 16:42:32;;;;;;;;;;;;;;;;;;;;;
2023/07/21 16:46:24;;;;;;;;;;;;;;;;;;;;;
2023/07/21 16:50:17;;;;;;;3.80;1.50;;;;;;;24.13;42.57;99548.84;125865;1311;114990;-62
2023/07/21 16:54:08;;;;;;;9.00;4.70;;;;;;;23.94;43.31;99544.41;125660;1314;115051;-63
2023/07/21 16:57:54;;;;;;;3.00;2.00;;;;;;;23.72;44.08;99552.07;126154;1299;129688;-65
2023/07/21 17:01:54;;;;;;;;;;;;;;;;;;;;;
2023/07/21 17:05:42;;;;;;;;;;;;;;;;;;;;;
2023/07/21 17:09:25;;;;;;;;;;;;;;;;;;;;;
2023/07/21 17:17:23;;;;;;;2.00;1.80;;;;;;;22.85;48.78;99551.29;126245;1293;129725;-62
2023/07/21 17:21:03;;;;;;;2.80;2.10;;;;;;;22.84;49.11;99549.02;126127;1308;115632;-63
2023/07/21 17:24:45;;;;;;;;;;;;;;;;;;;;;
2023/07/21 17:28:37;;;;;;;;;;;;;;;;;;;;;
2023/07/21 17:32:30;;;;;;;3.70;2.40;;;;;;;22.56;49.47;99541.34;126478;1308;114811;-65
2023/07/21 17:36:22;;;;;;;;;;;;;;;;;;;;;
2023/07/21 17:40:29;;;;;;;3.80;3.10;;;;;;;22.42;50.08;99528.13;125493;1304;115224;-64
2023/07/21 17:43:48;;;;;;;4.00;2.60;;;;;;;22.35;50.30;99531.77;125348;1322;114955;-64
2023/07/21 17:47:48;;;;;;;;;;;;;;;;;;;;;
2023/07/21 17:52:32;;;;;;;5.10;2.80;;;;;;;22.20;50.84;99516.42;125702;1308;652630;-63
2023/07/21 17:56:12;;;;;;;;;;;;;;;;;;;;;
2023/07/21 18:00:03;;;;;;;3.60;2.80;;;;;;;22.07;51.24;99530.85;127889;1292;115053;-64
2023/07/21 18:03:56;;;;;;;;;;;;;;;;;;;;;
2023/07/21 18:07:20;;;;;;;4.10;2.80;;;;;;;22.05;51.72;99532.50;125184;1320;114862;-63
2023/07/21 18:11:22;;;;;;;8.80;2.90;;;;;;;22.06;51.49;99530.25;125283;1324;114956;-64
2023/07/21 18:15:13;;;;;;;5.60;2.50;;;;;;;22.07;51.83;99541.94;124896;1328;114882;-63
2023/07/21 18:18:51;;;;;;;4.80;2.50;;;;;;;22.08;51.92;99559.13;124262;1316;128704;-63
2023/07/21 18:26:46;;;;;;;5.00;2.70;;;;;;;21.92;52.48;99560.48;126115;1298;635809;-63
2023/07/21 18:30:50;;;;;;;6.10;3.60;;;;;;;21.77;52.96;99568.21;128197;1291;128088;-65
2023/07/21 18:34:42;;;;;;;;;;;;;;;;;;;;;
2023/07/21 18:39:11;;;;;;;3.60;2.50;;;;;;;21.39;54.33;99548.66;126324;1307;115744;-64
2023/07/21 18:42:25;;;;;;;3.60;2.30;;;;;;;21.13;54.40;99542.54;122009;1303;114859;-66
2023/07/21 18:46:15;;;;;;;;;;;;;;;;;;;;;
2023/07/21 18:49:56;;;;;;;;;;;;;;;;;;;;;
2023/07/21 18:53:42;;;;;;;4.50;2.90;;;;;;;20.57;55.44;99565.23;125398;1308;129674;-65
2023/07/21 18:56:51;;;;;;;;;;;;;;;20.45;55.64;99558.78;124822;1310;116548;-63
2023/07/21 19:00:42;;;;;;;3.10;2.40;;;;;;;20.32;55.62;99554.58;124865;1311;114986;-63
2023/07/21 19:04:35;;;;;;;;;;;;;;;;;;;;;
2023/07/21 19:08:14;;;;;;;3.90;3.00;;;;;;;20.06;55.94;99574.79;126380;1293;635479;-66
2023/07/21 19:12:06;;;;;;;5.20;3.20;;;;;;;19.93;56.30;99584.38;129445;1269;128715;-66
2023/07/21 19:16:02;;;;;;;6.10;2.90;;;;;;;19.80;56.79;99586.37;129289;1289;115218;-67
2023/07/21 19:19:52;;;;;;;2.90;2.50;;;;;;;19.68;57.04;99592.42;127858;1286;116605;-65
2023/07/21 19:23:44;;;;;;;;;;;;;;;;;;;;;
2023/07/21 19:27:26;;;;;;;;;;;;;;;;;;;;;
2023/07/21 19:30:49;;;;;;;4.60;2.60;;;;;;;19.27;58.16;99608.27;128214;1284;114822;-67
2023/07/21 19:34:22;;;;;;;3.90;3.40;;;;;;;19.21;58.50;99613.50;127974;1276;127977;-67
2023/07/21 19:38:14;;;;;;;;;;;;;;;;;;;;;
2023/07/21 19:42:07;;;;;;;;;;;;;;;;;;;;;
2023/07/21 19:46:01;;;;;;;3.10;2.80;;;;;;;18.97;59.53;99598.08;126641;1287;115070;-66
2023/07/21 19:50:02;;;;;;;4.50;3.50;;;;;;;18.86;60.17;99602.91;125696;1317;114798;-65
2023/07/21 19:54:03;;;;;;;6.40;3.20;;;;;;;18.77;61.20;99602.71;124965;1310;129848;-63
2023/07/21 19:57:57;;;;;;;;;;;;;;;;;;;;;
2023/07/21 20:06:02;;;;;;;6.70;4.90;;;;;;;18.54;62.39;99619.60;126225;1298;635310;-64
2023/07/21 20:09:34;;;;;;;5.80;4.30;;;;;;;18.47;62.85;99618.09;128086;1297;129770;-64
2023/07/21 20:13:32;;;;;;;9.80;4.30;;;;;;;18.44;63.22;99614.05;128112;1293;115135;-62
2023/07/21 20:17:35;;;;;;;6.10;4.30;;;;;;;18.42;63.52;99615.71;127433;1286;115210;-63
2023/07/21 20:21:25;;;;;;;4.40;3.90;;;;;;;18.40;64.12;99619.33;122567;1295;114928;-64
2023/07/21 20:25:32;;;;;;;4.70;4.20;;;;;;;18.37;64.68;99625.21;126637;1312;116707;-65
2023/07/21 20:33:26;;;;;;;8.30;4.80;;;;;;;18.31;65.10;99647.05;125505;1296;128785;-65
2023/07/21 20:37:18;;;;;;;5.10;4.10;;;;;;;18.29;65.30;99658.29;125720;1299;115288;-62
2023/07/21 20:45:01;;;;;;;6.60;4.70;;;;;;;18.24;65.92;99662.96;125368;1298;114860;-63
2023/07/21 20:49:02;;;;;;;7.60;5.30;;;;;;;18.20;66.15;99669.22;124760;1327;114863;-63
2023/07/21 20:52:47;;;;;;;6.80;4.60;;;;;;;18.16;66.37;99670.12;123395;1316;129895;-63
2023/07/21 20:56:30;;;;;;;4.80;4.00;;;;;;;18.12;66.54;99678.45;124005;1314;115700;-63
2023/07/21 21:00:16;;;;;;;6.20;4.20;;;;;;;18.07;66.75;99684.55;124939;1322;114861;-63
2023/07/21 21:04:15;;;;;;;8.60;5.80;;;;;;;18.00;67.06;99688.80;125355;1318;114902;-63
2023/07/21 21:11:46;;;;;;;;;;;;;;;;;;;;;
2023/07/21 21:15:33;;;;;;;6.60;5.70;;;;;;;17.84;67.90;99695.94;125324;1302;115315;-63
2023/07/21 21:19:35;;;;;;;7.40;5.50;;;;;;;17.80;67.88;99695.55;125369;1301;115017;-65
2023/07/21 21:23:36;;;;;;;5.90;4.70;;;;;;;17.76;68.31;99709.49;125040;1316;114981;-63
2023/07/21 21:27:31;;;;;;;7.20;5.10;;;;;;;17.71;68.49;99723.24;125445;1320;115035;-62
2023/07/21 21:31:28;;;;;;;7.10;5.40;;;;;;;17.69;68.75;99716.45;125312;1321;128886;-64
2023/07/21 21:35:10;;;;;;;6.70;5.40;;;;;;;17.66;69.16;99713.79;125167;1307;115358;-63
2023/07/21 21:38:57;;;;;;;;;;;;;;;;;;;;;
2023/07/21 21:42:48;;;;;;;;;;;;;;;;;;;;;
2023/07/21 21:50:32;;;;;;;6.00;5.00;;;;;;;17.66;69.85;99720.86;125868;1295;129744;-65
2023/07/21 21:53:52;;;;;;;5.80;4.70;;;;;;;17.67;69.99;99719.10;125771;1314;115289;-65
2023/07/21 21:57:56;;;;;;;9.50;5.40;;;;;;;17.69;70.08;99717.84;126395;1289;114941;-64
2023/07/21 22:01:58;;;;;;;6.70;5.00;;;;;;;17.70;70.29;99718.34;127326;1303;114840;-64
2023/07/21 22:05:22;;;;;;;6.50;5.10;;;;;;;17.72;70.50;99722.27;127750;1301;114868;-64
2023/07/21 22:08:48;;;;;;;;;;;;;;;;;;;;;
2023/07/21 22:12:04;;;;;;;6.30;5.60;;;;;;;17.75;70.79;99734.81;128073;1274;115169;-65
2023/07/21 22:15:54;;;;;;;6.70;5.30;;;;;;;17.77;70.76;99745.48;128659;1275;114862;-64
2023/07/21 22:19:24;;;;;;;;;;;;;;;;;;;;;
2023/07/21 22:23:09;;;;;;;5.50;4.80;;;;;;;17.80;71.12;99753.73;127733;1277;114912;-65
2023/07/21 22:27:05;;;;;;;;;;;;;;;;;;;;;
2023/07/21 22:30:08;;;;;;;6.90;4.70;;;;;;;17.84;71.26;99754.16;127794;1283;115207;-64
2023/07/21 22:33:50;;;;;;;;;;;;;;;;;;;;;
2023/07/21 22:37:42;;;;;;;8.20;6.20;;;;;;;17.86;71.27;99760.30;127244;1288;114974;-65
2023/07/21 22:41:05;;;;;;;;;;;;;;;17.86;71.27;99767.14;126973;1301;114866;-64
2023/07/21 22:44:20;;;;;;;8.60;5.60;;;;;;;17.86;71.42;99767.38;127786;1283;128720;-64
2023/07/21 22:47:52;;;;;;;5.80;5.20;;;;;;;17.86;71.49;99771.63;127355;1284;115377;-64
2023/07/21 22:51:36;;;;;;;6.70;5.00;;;;;;;17.87;71.21;99771.73;127876;1280;114897;-66
2023/07/21 22:55:29;;;;;;;7.30;4.80;;;;;;;17.86;71.39;99762.41;127619;1286;114869;-63
2023/07/21 22:59:23;;;;;;;9.20;5.10;;;;;;;17.86;71.55;99755.99;127158;1286;114813;-65
2023/07/21 23:02:28;;;;;;;10.00;8.00;;;;;;;17.87;72.16;99756.94;126649;1293;128820;-66
2023/07/21 23:06:11;;;;;;;8.50;6.90;;;;;;;17.87;72.42;99747.02;127699;1299;114916;-65
2023/07/21 23:09:56;;;;;;;7.00;5.90;;;;;;;17.86;72.90;99743.50;128232;1271;114933;-65
2023/07/21 23:13:03;;;;;;;10.30;6.20;;;;;;;17.84;73.17;99742.03;128520;1277;115664;-64
2023/07/21 23:16:38;;;;;;;6.70;6.00;;;;;;;17.83;73.47;99740.42;128136;1280;114917;-65
2023/07/21 23:20:33;;;;;;;7.90;6.60;;;;;;;17.82;73.86;99738.57;128714;1271;128114;-66
2023/07/21 23:24:09;;;;;;;6.70;5.90;;;;;;;17.79;74.08;99746.41;128412;1290;114957;-65
2023/07/21 23:28:01;;;;;;;7.30;6.00;;;;;;;17.74;74.22;99749.77;128505;1271;114830;-64
2023/07/21 23:32:04;;;;;;;6.40;5.60;;;;;;;17.69;74.55;99752.17;128143;1272;114909;-64
2023/07/21 23:36:08;;;;;;;8.40;6.00;;;;;;;17.63;74.62;99746.59;127993;1277;115103;-64
2023/07/21 23:40:11;;;;;;;;;;;;;;;;;;;;;
2023/07/21 23:44:29;;;;;;;7.50;5.20;;;;;;;17.46;74.45;99752.41;126369;1311;114830;-64
2023/07/21 23:48:30;;;;;;;8.20;5.50;;;;;;;17.36;74.61;99757.03;125809;1295;114936;-64
2023/07/21 23:52:22;;;;;;;5.10;4.60;;;;;;;17.27;74.62;99762.48;124730;1310;114875;-64
